Time;durP1;ratioP1;P1;durP2;ratioP2;P2;SDS_P1;SDS_P2;PMS_P1;PMS_P2;Temp;Humidity;BMP_temperature;BMP_pressure;BME280_temperature;BME280_humidity;BME280_pressure;Samples;Min_cycle;Max_cycle;Signal;HPM_P1;HPM_P2
2024/01/21 00:02:21;;;;;;;10.90;6.63;;;;;;;0.48;77.50;102293.03;5054400;28;20044;-67
2024/01/21 00:05:09;;;;;;;12.98;6.63;;;;;;;0.47;77.57;102291.34;5042959;28;20251;-67
2024/01/21 00:07:57;;;;;;;10.55;6.28;;;;;;;0.47;77.86;102275.28;5059375;28;20048;-67
2024/01/21 00:10:45;;;;;;;11.15;6.80;;;;;;;0.47;77.22;102269.91;5034177;28;20048;-67
2024/01/21 00:13:33;;;;;;;12.13;6.50;;;;;;;0.46;76.71;102266.41;5076010;28;20412;-66
2024/01/21 00:16:21;;;;;;;11.43;6.32;;;;;;;0.44;76.80;102259.53;5061262;28;20051;-67
2024/01/21 00:19:09;;;;;;;10.23;5.72;;;;;;;0.45;76.30;102255.81;5053763;28;20537;-68
2024/01/21 00:21:57;;;;;;;13.07;6.32;;;;;;;0.44;76.38;102251.47;5054471;28;20044;-67
2024/01/21 00:24:45;;;;;;;12.05;6.78;;;;;;;0.44;76.29;102249.63;5054171;28;20040;-66
2024/01/21 00:27:33;;;;;;;11.50;6.43;;;;;;;0.42;74.94;102247.09;5039481;28;20116;-67
2024/01/21 00:30:21;;;;;;;11.07;6.30;;;;;;;0.34;75.00;102243.59;5069074;28;20040;-67
2024/01/21 00:33:09;;;;;;;11.25;5.90;;;;;;;0.32;75.60;102246.44;5077150;28;20413;-67
2024/01/21 00:35:58;;;;;;;11.48;6.43;;;;;;;0.30;75.97;102245.75;5059720;28;20555;-66
2024/01/21 00:38:45;;;;;;;16.30;6.50;;;;;;;0.32;76.07;102241.06;5060598;28;20063;-68
2024/01/21 00:41:33;;;;;;;16.17;7.10;;;;;;;0.31;75.89;102236.69;5036106;28;20059;-65
2024/01/21 00:44:21;;;;;;;11.38;6.40;;;;;;;0.32;76.11;102233.03;5074342;28;20075;-65
2024/01/21 00:47:09;;;;;;;9.65;6.00;;;;;;;0.33;75.17;102225.81;5091567;28;20178;-67
2024/01/21 00:49:57;;;;;;;11.77;6.65;;;;;;;0.34;74.86;102228.34;5082423;28;20168;-68
2024/01/21 00:52:46;;;;;;;11.02;6.47;;;;;;;0.31;74.36;102225.13;5061817;28;20049;-66
2024/01/21 00:55:34;;;;;;;10.85;6.75;;;;;;;0.29;74.96;102225.31;5088731;28;20075;-67
2024/01/21 00:58:22;;;;;;;11.18;6.63;;;;;;;0.31;75.05;102230.50;5082651;28;20388;-69
2024/01/21 01:01:15;;;;;;;10.02;6.53;;;;;;;0.30;74.82;102226.97;5075159;28;20127;-66
2024/01/21 01:04:03;;;;;;;11.07;6.80;;;;;;;0.29;74.15;102224.44;5075155;28;20412;-67
2024/01/21 01:06:51;;;;;;;11.07;6.53;;;;;;;0.25;74.09;102232.00;5060477;28;20405;-67
2024/01/21 01:09:40;;;;;;;13.10;6.78;;;;;;;0.19;74.23;102219.25;5047818;28;20064;-67
2024/01/21 01:12:28;;;;;;;13.40;6.35;;;;;;;0.18;74.44;102222.94;5072432;28;20052;-67
2024/01/21 01:15:18;;;;;;;11.13;6.88;;;;;;;0.17;74.63;102221.28;5053320;28;20052;-67
2024/01/21 01:18:06;;;;;;;12.32;7.22;;;;;;;0.18;75.75;102206.88;5053638;28;20049;-66
2024/01/21 01:20:54;;;;;;;10.68;6.82;;;;;;;0.21;75.42;102206.53;5024536;28;20052;-67
2024/01/21 01:23:42;;;;;;;11.15;6.55;;;;;;;0.24;75.29;102190.13;5046482;28;20507;-69
2024/01/21 01:26:31;;;;;;;10.93;6.20;;;;;;;0.23;75.09;102188.44;5073193;28;20047;-67
2024/01/21 01:29:19;;;;;;;10.00;6.72;;;;;;;0.22;74.89;102170.69;5058255;28;20048;-67
2024/01/21 01:32:07;;;;;;;10.73;6.53;;;;;;;0.23;74.17;102167.00;5073050;28;20052;-66
2024/01/21 01:34:55;;;;;;;12.65;7.07;;;;;;;0.25;74.10;102154.28;5071372;28;20061;-66
2024/01/21 01:37:43;;;;;;;12.43;7.40;;;;;;;0.25;74.51;102150.75;5025629;28;20144;-66
2024/01/21 01:40:31;;;;;;;12.50;6.97;;;;;;;0.26;74.52;102149.75;5048128;28;20131;-67
2024/01/21 01:43:19;;;;;;;12.65;6.70;;;;;;;0.27;74.25;102132.66;5058809;28;20541;-66
2024/01/21 01:46:07;;;;;;;10.35;5.85;;;;;;;0.30;73.76;102122.44;5058644;28;20036;-67
2024/01/21 01:48:55;;;;;;;11.48;6.65;;;;;;;0.28;73.36;102105.69;5058572;28;20127;-67
2024/01/21 01:51:44;;;;;;;14.43;7.00;;;;;;;0.28;73.46;102105.69;5044426;28;20487;-67
2024/01/21 01:54:34;;;;;;;12.27;6.50;;;;;;;0.28;73.20;102100.31;5075014;28;20057;-67
2024/01/21 01:57:22;;;;;;;12.15;6.20;;;;;;;0.26;72.69;102098.81;5056557;28;20049;-67
2024/01/21 02:00:10;;;;;;;9.30;5.88;;;;;;;0.23;72.65;102105.34;5020304;28;20112;-67
2024/01/21 02:03:00;;;;;;;9.82;6.32;;;;;;;0.24;72.69;102095.47;5006587;28;20058;-67
2024/01/21 02:05:48;;;;;;;13.70;7.00;;;;;;;0.25;72.69;102100.66;5019373;28;20049;-66
2024/01/21 02:08:36;;;;;;;11.10;6.25;;;;;;;0.24;72.64;102096.31;5046043;28;20049;-66
2024/01/21 02:11:24;;;;;;;9.30;6.07;;;;;;;0.25;72.58;102100.66;5011700;28;20413;-66
2024/01/21 02:14:12;;;;;;;10.60;6.20;;;;;;;0.24;72.30;102088.28;5053525;28;20509;-66
2024/01/21 02:17:00;;;;;;;10.48;6.00;;;;;;;0.26;72.47;102080.06;5049859;28;20527;-67
2024/01/21 02:19:48;;;;;;;9.80;6.03;;;;;;;0.28;72.14;102073.50;5039315;28;20044;-68
2024/01/21 02:22:41;;;;;;;10.75;5.93;;;;;;;0.27;72.01;102079.06;5024270;28;20405;-67
2024/01/21 02:25:29;;;;;;;11.73;5.88;;;;;;;0.28;72.32;102062.78;5051902;28;20071;-68
2024/01/21 02:28:17;;;;;;;10.05;5.90;;;;;;;0.27;71.43;102069.16;5037761;28;20150;-67
2024/01/21 02:31:05;;;;;;;8.73;5.45;;;;;;;0.27;72.08;102060.31;5017451;28;20053;-67
2024/01/21 02:33:53;;;;;;;10.57;6.03;;;;;;;0.27;71.72;102055.78;5039681;28;20052;-66
2024/01/21 02:36:43;;;;;;;9.38;5.50;;;;;;;0.28;71.55;102051.25;5052912;28;20471;-66
2024/01/21 02:39:31;;;;;;;10.27;5.60;;;;;;;0.28;70.82;102046.72;5051125;28;20057;-66
2024/01/21 02:42:20;;;;;;;11.23;5.18;;;;;;;0.28;70.63;102046.72;5037819;28;20424;-67
2024/01/21 02:45:08;;;;;;;9.90;5.47;;;;;;;0.29;71.04;102043.03;5051444;28;20052;-67
2024/01/21 02:47:57;;;;;;;9.68;5.57;;;;;;;0.31;69.98;102041.00;5052594;28;20182;-67
2024/01/21 02:50:45;;;;;;;8.35;5.10;;;;;;;0.33;69.81;102025.59;5053039;28;20053;-67
2024/01/21 02:53:33;;;;;;;8.82;5.00;;;;;;;0.31;70.02;102029.44;5038670;28;20531;-67
2024/01/21 02:56:25;;;;;;;7.95;5.00;;;;;;;0.30;70.14;102028.63;5051768;28;20584;-67
2024/01/21 02:59:13;;;;;;;9.95;5.45;;;;;;;0.28;69.82;102014.53;5037752;28;20056;-67
2024/01/21 03:02:01;;;;;;;12.48;4.93;;;;;;;0.27;69.85;102015.56;5056276;28;20417;-67
2024/01/21 03:04:49;;;;;;;10.05;5.18;;;;;;;0.28;69.69;102011.88;5071625;28;20115;-66
2024/01/21 03:07:37;;;;;;;8.90;4.95;;;;;;;0.30;70.42;102009.84;5072424;28;20060;-67
2024/01/21 03:10:25;;;;;;;9.05;4.93;;;;;;;0.32;70.35;102007.84;5055768;28;20040;-67
2024/01/21 03:13:13;;;;;;;8.02;4.90;;;;;;;0.32;69.71;101989.06;5055268;28;20142;-67
2024/01/21 03:16:02;;;;;;;8.95;5.20;;;;;;;0.33;69.47;101988.06;5052178;28;20052;-67
2024/01/21 03:18:50;;;;;;;8.93;4.82;;;;;;;0.34;69.92;101976.34;5070738;28;20063;-67
2024/01/21 03:21:38;;;;;;;8.85;4.80;;;;;;;0.36;70.30;101978.84;5057354;28;20049;-67
2024/01/21 03:24:26;;;;;;;9.60;4.90;;;;;;;0.37;70.23;101969.81;5062733;28;20059;-66
2024/01/21 03:27:14;;;;;;;8.05;4.65;;;;;;;0.35;69.98;101963.78;5057578;28;20052;-67
2024/01/21 03:30:02;;;;;;;10.88;4.82;;;;;;;0.32;69.65;101967.63;5070736;28;20037;-67
2024/01/21 03:32:50;;;;;;;8.57;4.45;;;;;;;0.26;70.27;101965.63;5044057;28;20182;-66
2024/01/21 03:35:38;;;;;;;8.38;5.03;;;;;;;0.19;69.96;101967.31;5072498;28;20148;-67
2024/01/21 03:38:26;;;;;;;8.93;4.68;;;;;;;0.18;70.54;101971.03;5057823;28;20203;-67
2024/01/21 03:41:14;;;;;;;8.75;4.57;;;;;;;0.19;71.58;101978.03;5042648;28;20052;-67
2024/01/21 03:44:03;;;;;;;7.68;4.50;;;;;;;0.23;71.20;101975.88;5071770;28;20134;-67
2024/01/21 03:46:52;;;;;;;7.63;4.30;;;;;;;0.23;71.55;101968.66;5057652;28;20059;-67
2024/01/21 03:49:40;;;;;;;8.85;4.65;;;;;;;0.22;71.73;101967.00;5056185;28;20049;-68
2024/01/21 03:52:28;;;;;;;7.85;4.38;;;;;;;0.21;71.53;101966.13;5071742;28;20045;-67
2024/01/21 03:55:17;;;;;;;9.55;4.68;;;;;;;0.18;71.03;101957.63;5056329;28;20415;-66
2024/01/21 03:58:05;;;;;;;8.00;4.30;;;;;;;0.15;71.77;101949.94;5030683;28;20131;-67
2024/01/21 04:00:53;;;;;;;7.95;4.10;;;;;;;0.18;72.47;101955.75;5059176;28;20052;-67
2024/01/21 04:03:41;;;;;;;7.63;4.30;;;;;;;0.22;72.64;101950.91;5085711;28;20049;-67
2024/01/21 04:06:29;;;;;;;6.97;4.07;;;;;;;0.24;72.33;101942.69;5077878;28;20106;-67
2024/01/21 04:09:23;;;;;;;8.77;3.97;;;;;;;0.17;71.51;101926.47;5075045;28;20132;-67
2024/01/21 04:12:13;;;;;;;7.15;4.30;;;;;;;0.16;72.61;101919.44;5073235;28;20119;-67
2024/01/21 04:15:01;;;;;;;10.13;4.25;;;;;;;0.15;72.08;101923.13;5073943;28;20049;-68
2024/01/21 04:17:50;;;;;;;6.60;3.83;;;;;;;0.17;72.62;101913.91;5076603;28;20497;-66
2024/01/21 04:20:38;;;;;;;6.32;4.00;;;;;;;0.16;72.89;101911.41;5074416;28;20494;-68
2024/01/21 04:23:26;;;;;;;7.70;4.03;;;;;;;0.18;72.69;101920.09;5073602;28;20044;-67
2024/01/21 04:26:15;;;;;;;7.00;3.75;;;;;;;0.24;73.07;101908.69;5046576;28;20051;-68
2024/01/21 04:29:03;;;;;;;6.72;4.10;;;;;;;0.25;72.86;101907.69;5059745;28;20126;-67
2024/01/21 04:31:51;;;;;;;6.15;4.00;;;;;;;0.27;72.70;101905.66;5072467;28;20099;-67
2024/01/21 04:34:38;;;;;;;8.90;4.10;;;;;;;0.24;72.82;101906.03;5073718;28;20507;-67
2024/01/21 04:37:27;;;;;;;6.28;3.80;;;;;;;0.26;73.19;101895.09;5059730;28;20189;-67
2024/01/21 04:40:15;;;;;;;7.20;4.10;;;;;;;0.35;73.88;101892.22;5060273;28;20060;-66
2024/01/21 04:43:03;;;;;;;6.57;4.00;;;;;;;0.39;74.27;101877.47;5053501;28;20120;-67
2024/01/21 04:45:51;;;;;;;5.93;3.70;;;;;;;0.37;73.10;101871.44;5038848;28;20132;-67
2024/01/21 04:48:39;;;;;;;6.68;3.80;;;;;;;0.48;74.96;101864.00;5054805;28;20497;-68
2024/01/21 04:51:28;;;;;;;8.02;3.60;;;;;;;0.45;73.88;101845.59;5069129;28;20053;-67
2024/01/21 04:54:16;;;;;;;6.88;3.85;;;;;;;0.48;74.96;101826.47;5054049;28;20052;-67
2024/01/21 04:57:04;;;;;;;6.97;4.30;;;;;;;0.47;74.73;101830.19;5073524;28;20064;-67
2024/01/21 04:59:52;;;;;;;7.40;4.22;;;;;;;0.53;76.95;101808.88;5047320;28;20068;-66
2024/01/21 05:02:40;;;;;;;5.55;3.40;;;;;;;0.52;76.44;101803.66;5054145;28;20191;-67
2024/01/21 05:05:28;;;;;;;6.90;4.03;;;;;;;0.60;77.36;101807.13;5055868;28;20122;-67
2024/01/21 05:08:16;;;;;;;8.80;4.35;;;;;;;0.67;80.75;101801.88;5069973;28;20120;-65
2024/01/21 05:11:04;;;;;;;6.65;4.03;;;;;;;0.63;80.04;101811.31;5053844;28;20051;-66
2024/01/21 05:13:52;;;;;;;7.80;4.53;;;;;;;0.60;79.52;101811.66;5028368;28;20111;-66
2024/01/21 05:16:41;;;;;;;6.88;4.13;;;;;;;0.61;80.09;101803.44;5047042;28;20123;-65
2024/01/21 05:19:29;;;;;;;6.60;3.80;;;;;;;0.64;81.82;101821.84;5051325;28;20040;-66
2024/01/21 05:22:18;;;;;;;7.68;4.10;;;;;;;0.85;99.43;101818.53;5059790;28;20120;-65
2024/01/21 05:25:06;;;;;;;8.10;4.20;;;;;;;0.87;98.46;101836.28;5028633;28;20087;-67
2024/01/21 05:27:56;;;;;;;6.00;3.60;;;;;;;1.20;100.00;101826.13;5059743;28;20503;-67
2024/01/21 05:30:44;;;;;;;6.82;3.78;;;;;;;1.19;100.00;101822.59;5060736;28;20053;-67
2024/01/21 05:33:32;;;;;;;7.22;4.07;;;;;;;1.27;100.00;101816.31;5013901;28;20049;-66
2024/01/21 05:36:20;;;;;;;6.93;3.80;;;;;;;1.27;100.00;101795.69;5026680;28;20056;-66
2024/01/21 05:39:09;;;;;;;6.32;3.97;;;;;;;1.16;100.00;101796.13;5037781;28;20059;-66
2024/01/21 05:42:04;;;;;;;6.40;3.35;;;;;;;1.20;100.00;101780.47;5052758;28;20056;-66
2024/01/21 05:44:52;;;;;;;8.38;4.78;;;;;;;1.18;100.00;101785.19;5023751;28;20041;-67
2024/01/21 05:47:40;;;;;;;7.97;3.72;;;;;;;1.54;100.00;101785.38;5028304;28;20045;-67
2024/01/21 05:50:28;;;;;;;5.35;3.67;;;;;;;1.44;100.00;101787.47;5040604;28;20069;-67
2024/01/21 05:53:16;;;;;;;8.30;4.47;;;;;;;1.30;100.00;101785.59;5053398;28;20524;-67
2024/01/21 05:56:05;;;;;;;8.23;3.55;;;;;;;1.36;100.00;101782.19;5025409;28;20479;-67
2024/01/21 05:58:54;;;;;;;4.00;2.80;;;;;;;1.69;100.00;101791.56;5017722;28;20056;-68
2024/01/21 06:01:43;;;;;;;7.07;3.58;;;;;;;1.98;100.00;101787.19;5057709;28;20049;-68
2024/01/21 06:04:32;;;;;;;5.53;3.20;;;;;;;1.93;100.00;101778.88;5075374;28;20489;-67
2024/01/21 06:07:20;;;;;;;6.65;4.10;;;;;;;2.03;100.00;101782.09;5045643;28;20127;-67
2024/01/21 06:10:08;;;;;;;3.47;2.10;;;;;;;2.20;100.00;101771.13;5072370;28;20094;-66
2024/01/21 06:12:56;;;;;;;4.72;2.95;;;;;;;2.37;100.00;101769.84;5058617;28;20048;-67
2024/01/21 06:15:45;;;;;;;3.75;2.40;;;;;;;2.53;100.00;101758.03;5072479;28;20052;-66
2024/01/21 06:18:33;;;;;;;3.97;2.80;;;;;;;2.58;100.00;101755.59;5057705;28;20428;-66
2024/01/21 06:21:21;;;;;;;4.55;3.10;;;;;;;2.42;100.00;101766.59;5071916;28;20037;-67
2024/01/21 06:24:13;;;;;;;8.75;3.45;;;;;;;2.11;100.00;101775.75;5072001;28;20052;-67
2024/01/21 06:27:01;;;;;;;6.88;3.60;;;;;;;2.08;100.00;101787.72;5044533;28;20087;-66
2024/01/21 06:29:49;;;;;;;8.85;3.35;;;;;;;2.17;100.00;101790.31;5058730;28;20048;-66
2024/01/21 06:32:37;;;;;;;3.47;2.63;;;;;;;2.11;100.00;101792.72;5038912;28;20059;-66
2024/01/21 06:35:27;;;;;;;8.25;4.97;;;;;;;1.86;100.00;101805.63;5039026;28;20052;-68
2024/01/21 06:38:15;;;;;;;6.07;3.90;;;;;;;1.81;100.00;101812.59;5066337;28;20050;-67
2024/01/21 06:41:03;;;;;;;5.95;3.80;;;;;;;1.93;100.00;101792.28;5067900;28;20045;-67
2024/01/21 06:43:51;;;;;;;7.30;4.35;;;;;;;2.06;100.00;101773.63;5058277;28;20529;-66
2024/01/21 06:46:39;;;;;;;7.13;3.92;;;;;;;2.14;100.00;101791.50;5073369;28;20057;-67
2024/01/21 06:49:27;;;;;;;8.27;3.63;;;;;;;1.99;100.00;101799.59;5056922;28;20178;-67
2024/01/21 06:52:15;;;;;;;8.95;4.97;;;;;;;1.81;100.00;101823.34;5039192;28;20051;-68
2024/01/21 06:55:04;;;;;;;9.77;5.90;;;;;;;2.08;100.00;101798.47;5052899;28;20055;-67
2024/01/21 06:57:52;;;;;;;8.15;5.18;;;;;;;1.95;100.00;101792.94;5056020;28;20044;-67
2024/01/21 07:00:40;;;;;;;8.90;5.22;;;;;;;1.82;100.00;101819.63;5051533;28;20045;-67
2024/01/21 07:03:29;;;;;;;5.75;3.80;;;;;;;1.96;100.00;101816.09;5036775;28;20103;-68
2024/01/21 07:06:17;;;;;;;7.63;3.85;;;;;;;1.83;100.00;101799.81;5038125;28;20045;-66
2024/01/21 07:09:05;;;;;;;7.47;4.13;;;;;;;1.98;100.00;101781.81;5041443;28;20512;-68
2024/01/21 07:11:53;;;;;;;6.85;4.22;;;;;;;2.18;100.00;101770.47;5038796;28;20572;-67
2024/01/21 07:14:41;;;;;;;9.25;4.43;;;;;;;2.24;100.00;101756.28;5064363;28;20099;-67
2024/01/21 07:17:29;;;;;;;5.80;2.70;;;;;;;2.58;100.00;101752.09;5043254;28;20119;-67
2024/01/21 07:20:17;;;;;;;5.50;2.95;;;;;;;2.62;100.00;101745.28;5068676;28;20052;-67
2024/01/21 07:23:06;;;;;;;5.55;3.33;;;;;;;2.61;100.00;101738.25;5057310;28;20063;-67
2024/01/21 07:25:55;;;;;;;6.05;3.65;;;;;;;2.16;100.00;101740.25;5070509;28;20056;-68
2024/01/21 07:28:43;;;;;;;7.40;3.72;;;;;;;2.71;100.00;101746.81;5076548;28;20052;-68
2024/01/21 07:31:31;;;;;;;10.90;6.70;;;;;;;2.21;100.00;101751.25;5044918;28;20048;-67
2024/01/21 07:34:20;;;;;;;11.25;6.28;;;;;;;1.64;100.00;101756.38;5072378;28;20048;-69
2024/01/21 07:37:08;;;;;;;11.10;6.38;;;;;;;1.42;100.00;101760.81;5073551;28;20048;-67
2024/01/21 07:39:56;;;;;;;10.00;6.00;;;;;;;1.31;100.00;101773.84;5063284;28;20052;-67
2024/01/21 07:42:45;;;;;;;10.77;6.95;;;;;;;1.20;100.00;101767.94;5065575;28;20049;-68
2024/01/21 07:45:33;;;;;;;14.15;6.95;;;;;;;1.16;98.20;101755.88;5059215;28;20469;-68
2024/01/21 07:48:21;;;;;;;9.50;5.85;;;;;;;1.19;94.36;101765.41;5063005;28;20082;-68
2024/01/21 07:51:09;;;;;;;8.68;2.88;;;;;;;1.93;100.00;101765.44;5077447;28;20048;-66
2024/01/21 07:53:57;;;;;;;8.77;4.72;;;;;;;2.41;100.00;101765.78;5048683;28;20044;-67
2024/01/21 07:56:45;;;;;;;11.07;4.38;;;;;;;2.23;100.00;101794.94;5092897;28;20126;-67
2024/01/21 07:59:33;;;;;;;9.23;4.80;;;;;;;1.92;100.00;101817.50;5080603;28;20056;-67
2024/01/21 08:02:26;;;;;;;5.72;3.03;;;;;;;2.23;100.00;101816.44;5088606;28;20104;-67
2024/01/21 08:05:14;;;;;;;6.53;4.32;;;;;;;2.40;100.00;101808.97;5041525;28;20037;-68
2024/01/21 08:08:03;;;;;;;6.95;3.80;;;;;;;2.28;100.00;101824.78;5042451;28;20381;-68
2024/01/21 08:10:52;;;;;;;10.27;3.58;;;;;;;2.22;100.00;101831.75;5053744;28;20052;-67
2024/01/21 08:13:40;;;;;;;10.60;4.72;;;;;;;2.66;100.00;101854.19;5066197;28;20082;-68
2024/01/21 08:16:28;;;;;;;13.88;4.80;;;;;;;2.46;100.00;101845.91;5066798;28;20106;-68
2024/01/21 08:19:17;;;;;;;5.38;2.90;;;;;;;2.24;100.00;101845.00;5073587;28;20052;-67
2024/01/21 08:22:08;;;;;;;5.07;2.97;;;;;;;2.19;100.00;101853.63;5061902;28;20051;-68
2024/01/21 08:24:57;;;;;;;8.60;3.80;;;;;;;2.50;100.00;101845.34;5057364;28;20171;-68
2024/01/21 08:27:45;;;;;;;9.52;4.22;;;;;;;2.68;100.00;101827.94;5074912;28;20047;-67
2024/01/21 08:30:33;;;;;;;6.63;3.92;;;;;;;2.52;100.00;101851.34;5073686;28;20420;-67
2024/01/21 08:33:21;;;;;;;6.32;3.35;;;;;;;2.94;100.00;101847.03;5062683;28;20044;-67
2024/01/21 08:36:09;;;;;;;8.32;4.13;;;;;;;2.74;100.00;101848.69;5050821;28;20044;-67
2024/01/21 08:38:57;;;;;;;8.88;5.03;;;;;;;2.51;100.00;101840.78;5074087;28;20043;-68
2024/01/21 08:41:46;;;;;;;9.73;3.70;;;;;;;2.81;100.00;101830.75;5073007;28;20067;-68
2024/01/21 08:44:34;;;;;;;9.80;4.22;;;;;;;2.45;100.00;101847.72;5072362;28;20056;-68
2024/01/21 08:47:22;;;;;;;8.80;3.88;;;;;;;2.73;100.00;101833.56;5059206;28;20056;-68
2024/01/21 08:50:10;;;;;;;11.68;3.92;;;;;;;3.04;100.00;101846.72;5054397;28;20179;-68
2024/01/21 08:52:59;;;;;;;6.85;3.35;;;;;;;2.93;100.00;101847.22;5086030;28;20040;-67
2024/01/21 08:55:47;;;;;;;12.38;5.93;;;;;;;2.74;100.00;101845.97;5077356;28;20091;-66
2024/01/21 08:58:35;;;;;;;12.63;6.00;;;;;;;2.13;100.00;101857.88;5065125;28;20037;-66
2024/01/21 09:01:24;;;;;;;10.07;5.82;;;;;;;1.95;100.00;101865.50;5060806;28;20349;-66
2024/01/21 09:04:13;;;;;;;12.32;5.97;;;;;;;1.78;100.00;101850.56;5060497;28;20051;-66
2024/01/21 09:07:01;;;;;;;10.45;6.43;;;;;;;1.78;100.00;101837.13;5076824;28;20614;-68
2024/01/21 09:09:51;;;;;;;10.40;5.32;;;;;;;1.76;100.00;101831.97;5037102;28;20036;-68
2024/01/21 09:12:39;;;;;;;9.15;5.53;;;;;;;1.80;100.00;101841.31;5070643;28;20076;-66
2024/01/21 09:15:27;;;;;;;9.65;6.05;;;;;;;1.84;97.77;101852.53;5054209;28;20411;-69
2024/01/21 09:18:16;;;;;;;12.95;5.50;;;;;;;1.82;96.22;101868.00;5050301;28;20053;-67
2024/01/21 09:21:04;;;;;;;9.65;6.07;;;;;;;1.86;96.49;101869.31;5061636;28;20041;-67
2024/01/21 09:24:01;;;;;;;13.35;5.40;;;;;;;1.86;97.27;101885.44;5043446;28;20045;-68
2024/01/21 09:26:49;;;;;;;12.32;6.20;;;;;;;1.93;98.93;101891.72;5052561;28;20120;-67
2024/01/21 09:29:37;;;;;;;13.73;6.70;;;;;;;2.62;100.00;101885.19;5057264;28;20048;-66
2024/01/21 09:32:28;;;;;;;13.75;4.95;;;;;;;2.54;100.00;101878.06;5057178;28;20072;-68
2024/01/21 09:35:17;;;;;;;14.95;5.82;;;;;;;2.77;100.00;101877.91;5093232;28;20055;-66
2024/01/21 09:38:05;;;;;;;14.70;5.20;;;;;;;2.88;100.00;101872.00;5064060;28;20055;-67
2024/01/21 09:41:49;;;;;;;15.70;5.65;;;;;;;2.85;100.00;101885.84;5079261;28;20103;-68
2024/01/21 09:44:37;;;;;;;9.85;5.40;;;;;;;2.66;100.00;101878.41;5041918;28;20053;-68
2024/01/21 09:47:25;;;;;;;10.00;5.63;;;;;;;2.47;100.00;101883.34;5055059;28;20053;-68
2024/01/21 09:50:15;;;;;;;11.40;5.28;;;;;;;2.64;100.00;101892.03;5054031;28;20041;-68
2024/01/21 09:53:04;;;;;;;12.85;5.55;;;;;;;2.65;100.00;101882.97;5042982;28;20416;-69
2024/01/21 09:55:57;;;;;;;10.20;5.13;;;;;;;2.71;100.00;101890.25;5013098;28;20045;-68
2024/01/21 09:58:55;;;;;;;11.15;5.47;;;;;;;2.59;100.00;101888.25;5039557;28;20113;-68
2024/01/21 10:01:44;;;;;;;15.98;5.00;;;;;;;2.95;100.00;101883.69;5056004;28;20056;-68
2024/01/21 10:04:33;;;;;;;11.35;5.30;;;;;;;3.26;100.00;101881.72;5037694;28;20072;-68
2024/01/21 10:07:21;;;;;;;13.32;5.43;;;;;;;3.00;100.00;101866.97;5060653;28;20048;-68
2024/01/21 10:10:12;;;;;;;10.63;4.40;;;;;;;2.99;100.00;101868.81;5075004;28;20121;-68
2024/01/21 10:13:01;;;;;;;13.93;5.10;;;;;;;3.29;100.00;101871.38;5073362;28;20044;-67
2024/01/21 10:15:50;;;;;;;11.98;4.75;;;;;;;3.22;100.00;101872.34;5038538;28;20064;-67
2024/01/21 10:18:38;;;;;;;12.38;4.57;;;;;;;3.25;100.00;101861.19;5039264;28;20454;-67
2024/01/21 10:21:26;;;;;;;11.02;4.78;;;;;;;3.37;100.00;101868.56;5028638;28;20452;-68
2024/01/21 10:24:15;;;;;;;8.77;4.35;;;;;;;3.38;100.00;101855.91;5044704;28;20044;-68
2024/01/21 10:27:07;;;;;;;10.30;5.32;;;;;;;3.38;100.00;101845.97;5057895;28;20044;-68
2024/01/21 10:30:00;;;;;;;10.57;4.10;;;;;;;3.71;100.00;101841.88;5071690;28;20045;-67
2024/01/21 10:32:49;;;;;;;7.93;4.35;;;;;;;3.74;100.00;101841.47;5038581;28;20053;-69
2024/01/21 10:35:38;;;;;;;8.82;3.53;;;;;;;3.88;100.00;101842.38;5062145;28;20041;-67
2024/01/21 10:38:32;;;;;;;9.57;4.75;;;;;;;3.66;100.00;101850.53;5044509;28;20123;-68
2024/01/21 10:41:46;;;;;;;9.85;3.58;;;;;;;3.80;100.00;101849.59;5032740;28;20103;-68
2024/01/21 10:44:36;;;;;;;8.60;3.93;;;;;;;3.73;100.00;101840.63;5058719;28;20048;-67
2024/01/21 10:47:24;;;;;;;9.48;4.28;;;;;;;3.79;100.00;101831.75;5058117;28;20048;-68
2024/01/21 10:50:13;;;;;;;7.47;3.67;;;;;;;3.69;100.00;101833.97;5044565;28;20109;-68
2024/01/21 10:53:01;;;;;;;8.45;4.18;;;;;;;3.94;100.00;101828.09;5057384;28;20476;-69
2024/01/21 10:55:50;;;;;;;8.65;3.88;;;;;;;4.14;100.00;101812.84;5044334;28;20110;-68
2024/01/21 10:58:39;;;;;;;8.65;3.03;;;;;;;4.01;100.00;101820.88;5072481;28;20066;-69
2024/01/21 11:01:27;;;;;;;7.00;3.63;;;;;;;4.13;100.00;101810.34;5058231;28;20044;-68
2024/01/21 11:04:16;;;;;;;8.05;3.80;;;;;;;4.11;100.00;101809.72;5061535;28;20056;-68
2024/01/21 11:07:05;;;;;;;5.78;2.95;;;;;;;3.84;100.00;101796.94;5057956;28;20086;-68
2024/01/21 11:09:55;;;;;;;8.77;3.47;;;;;;;4.18;100.00;101789.81;5044879;28;20040;-68
2024/01/21 11:12:44;;;;;;;6.40;3.60;;;;;;;4.40;100.00;101805.88;5057279;28;20552;-68
2024/01/21 11:15:32;;;;;;;7.25;3.75;;;;;;;4.04;100.00;101801.59;5057659;28;20091;-68
2024/01/21 11:18:23;;;;;;;7.10;3.78;;;;;;;3.88;100.00;101810.03;5056971;28;20052;-68
2024/01/21 11:21:13;;;;;;;8.27;4.70;;;;;;;3.57;100.00;101817.50;5071139;28;20056;-68
2024/01/21 11:24:05;;;;;;;4.97;2.83;;;;;;;3.52;100.00;101813.75;5053567;28;20837;-67
2024/01/21 11:26:53;;;;;;;7.70;3.40;;;;;;;3.62;100.00;101827.69;5037537;28;20081;-69
2024/01/21 11:29:42;;;;;;;6.22;3.45;;;;;;;3.56;100.00;101833.88;5051598;28;20049;-68
2024/01/21 11:32:31;;;;;;;7.60;3.92;;;;;;;3.62;100.00;101823.13;5043574;28;20460;-69
2024/01/21 11:35:19;;;;;;;5.13;2.50;;;;;;;3.89;100.00;101817.91;5057663;28;20515;-67
2024/01/21 11:38:07;;;;;;;7.30;3.75;;;;;;;3.89;100.00;101814.38;5058561;28;20059;-68
2024/01/21 11:41:07;;;;;;;9.73;5.20;;;;;;;3.83;100.00;101818.72;5057823;28;20041;-67
2024/01/21 11:43:55;;;;;;;7.72;4.07;;;;;;;4.02;100.00;101814.47;5072314;28;20047;-67
2024/01/21 11:46:44;;;;;;;10.70;5.30;;;;;;;4.04;100.00;101812.38;5057308;28;20158;-67
2024/01/21 11:49:33;;;;;;;6.68;3.38;;;;;;;4.01;100.00;101807.38;5056562;28;20048;-67
2024/01/21 11:52:21;;;;;;;6.15;3.00;;;;;;;4.13;100.00;101800.38;5043420;28;20389;-68
2024/01/21 11:55:09;;;;;;;6.88;4.43;;;;;;;3.99;100.00;101822.94;5050054;28;20546;-68
2024/01/21 11:57:57;;;;;;;5.63;3.25;;;;;;;3.97;100.00;101825.84;5060579;28;20504;-67
2024/01/21 12:00:46;;;;;;;6.55;2.72;;;;;;;3.83;100.00;101827.63;5058270;28;20040;-68
2024/01/21 12:03:34;;;;;;;5.95;3.13;;;;;;;3.95;100.00;101819.00;5057519;28;20170;-68
2024/01/21 12:06:24;;;;;;;6.88;4.03;;;;;;;4.05;100.00;101830.25;5070960;28;20040;-68
2024/01/21 12:09:12;;;;;;;5.68;3.15;;;;;;;4.01;100.00;101839.75;5055928;28;20057;-68
2024/01/21 12:12:05;;;;;;;8.15;5.07;;;;;;;3.94;100.00;101833.50;5071150;28;20037;-68
2024/01/21 12:14:53;;;;;;;8.13;4.60;;;;;;;3.88;100.00;101837.81;5070434;28;20088;-68
2024/01/21 12:17:55;;;;;;;6.82;3.97;;;;;;;3.85;100.00;101840.91;5043169;28;20076;-68
2024/01/21 12:20:44;;;;;;;8.80;4.93;;;;;;;3.87;100.00;101838.84;5055662;28;20048;-68
2024/01/21 12:23:32;;;;;;;10.40;5.35;;;;;;;3.97;100.00;101842.03;5072520;28;20059;-69
2024/01/21 12:26:21;;;;;;;5.07;2.90;;;;;;;4.08;100.00;101845.19;5061022;28;20041;-68
2024/01/21 12:29:10;;;;;;;7.07;4.53;;;;;;;3.99;100.00;101844.50;5047676;28;20052;-68
2024/01/21 12:31:58;;;;;;;8.80;4.15;;;;;;;4.05;100.00;101854.50;5060613;28;20051;-67
2024/01/21 12:34:46;;;;;;;8.57;4.35;;;;;;;4.09;100.00;101850.38;5074991;28;20388;-68
2024/01/21 12:37:35;;;;;;;5.80;2.63;;;;;;;4.09;100.00;101845.00;5046381;28;20056;-68
2024/01/21 12:40:23;;;;;;;5.57;3.33;;;;;;;4.22;100.00;101828.03;5060531;28;20045;-68
2024/01/21 12:43:16;;;;;;;7.18;3.40;;;;;;;4.10;100.00;101816.97;5075048;28;20056;-69
2024/01/21 12:46:04;;;;;;;5.85;2.75;;;;;;;4.16;100.00;101809.94;5058841;28;20488;-67
2024/01/21 12:48:53;;;;;;;8.55;4.40;;;;;;;4.24;100.00;101821.41;5072988;28;20052;-67
2024/01/21 12:51:42;;;;;;;3.65;2.50;;;;;;;4.34;100.00;101821.03;5045749;28;20418;-67
2024/01/21 12:54:31;;;;;;;6.65;3.58;;;;;;;4.26;100.00;101824.72;5034036;28;20044;-68
2024/01/21 12:57:19;;;;;;;7.82;3.90;;;;;;;4.09;100.00;101820.72;5073930;28;20083;-67
2024/01/21 13:00:08;;;;;;;4.70;2.92;;;;;;;4.10;100.00;101818.84;5059793;28;20421;-68
2024/01/21 13:02:56;;;;;;;9.52;5.38;;;;;;;4.16;100.00;101824.28;5061542;28;20130;-68
2024/01/21 13:05:46;;;;;;;8.63;4.43;;;;;;;4.31;100.00;101793.63;5046848;28;20121;-68
2024/01/21 13:08:36;;;;;;;8.40;4.72;;;;;;;4.21;100.00;101812.88;5074779;28;20638;-68